createdAt,value
2017-08-30T00:02:10.396Z,17.10
2017-08-30T00:04:37.687Z,16.80
2017-08-30T00:07:04.983Z,17.77
2017-08-30T00:09:32.267Z,15.47
2017-08-30T00:11:59.570Z,15.60
2017-08-30T00:17:00.687Z,15.70
2017-08-30T00:19:27.983Z,17.23
2017-08-30T00:21:55.285Z,17.80
2017-08-30T00:24:28.470Z,16.50
2017-08-30T00:26:59.649Z,13.80
2017-08-30T00:29:26.930Z,15.47
2017-08-30T00:31:54.216Z,14.93
2017-08-30T00:34:21.502Z,16.23
2017-08-30T00:36:48.795Z,16.70
2017-08-30T00:39:16.095Z,22.17
2017-08-30T00:41:43.377Z,16.33
2017-08-30T00:44:10.668Z,21.00
2017-08-30T00:46:37.937Z,19.47
2017-08-30T00:49:05.239Z,17.13
2017-08-30T00:51:32.526Z,17.73
2017-08-30T00:53:59.822Z,19.30
2017-08-30T00:56:27.101Z,15.23
2017-08-30T00:58:54.421Z,17.70
2017-08-30T01:01:21.697Z,17.63
2017-08-30T01:03:48.991Z,15.57
2017-08-30T01:06:16.321Z,16.40
2017-08-30T01:08:43.607Z,17.83
2017-08-30T01:11:10.899Z,15.73
2017-08-30T01:13:38.195Z,19.43
2017-08-30T01:16:05.467Z,15.97
2017-08-30T01:18:32.760Z,16.20
2017-08-30T01:21:00.046Z,18.30
2017-08-30T01:23:27.349Z,15.07
2017-08-30T01:25:54.636Z,14.50
2017-08-30T01:28:21.936Z,16.77
2017-08-30T01:30:49.214Z,18.30
2017-08-30T01:33:16.516Z,18.33
2017-08-30T01:35:43.806Z,15.60
2017-08-30T01:38:11.109Z,15.60
2017-08-30T01:40:38.383Z,16.03
2017-08-30T01:43:05.691Z,16.20
2017-08-30T01:45:32.964Z,15.70
2017-08-30T01:48:00.275Z,16.40
2017-08-30T01:50:27.554Z,14.90
2017-08-30T01:52:54.864Z,15.13
2017-08-30T01:55:22.151Z,16.60
2017-08-30T01:57:49.438Z,25.83
2017-08-30T02:00:16.802Z,15.10
2017-08-30T02:02:44.087Z,14.97
2017-08-30T02:05:11.374Z,14.83
2017-08-30T02:07:38.646Z,16.40
2017-08-30T02:10:05.951Z,15.87
2017-08-30T02:12:33.244Z,19.43
2017-08-30T02:15:00.544Z,15.50
2017-08-30T02:17:27.819Z,17.00
2017-08-30T02:19:55.115Z,15.10
2017-08-30T02:22:22.395Z,15.17
2017-08-30T02:24:49.692Z,14.40
2017-08-30T02:27:16.983Z,14.50
2017-08-30T02:29:44.288Z,16.27
2017-08-30T02:32:11.556Z,15.50
2017-08-30T02:34:38.857Z,16.37
2017-08-30T02:37:06.140Z,19.03
2017-08-30T02:39:33.439Z,15.83
2017-08-30T02:42:00.736Z,17.23
2017-08-30T02:44:28.042Z,14.23
2017-08-30T02:46:55.347Z,15.70
2017-08-30T02:49:22.656Z,16.37
2017-08-30T02:51:49.951Z,16.93
2017-08-30T02:54:17.231Z,17.07
2017-08-30T02:56:44.533Z,15.70
2017-08-30T02:59:11.803Z,15.07
2017-08-30T03:01:39.101Z,19.83
2017-08-30T03:04:06.392Z,14.83
2017-08-30T03:06:33.680Z,18.90
2017-08-30T03:09:00.967Z,17.43
2017-08-30T03:11:28.265Z,17.23
2017-08-30T03:13:55.532Z,21.40
2017-08-30T03:16:22.836Z,15.30
2017-08-30T03:18:50.111Z,15.63
2017-08-30T03:21:17.392Z,21.20
2017-08-30T03:23:44.688Z,16.93
2017-08-30T03:26:11.984Z,15.20
2017-08-30T03:28:39.287Z,16.50
2017-08-30T03:31:06.579Z,15.80
2017-08-30T03:33:33.866Z,15.77
2017-08-30T03:36:01.154Z,18.33
2017-08-30T03:38:28.451Z,18.63
2017-08-30T03:40:55.776Z,23.53
2017-08-30T03:43:23.072Z,23.10
2017-08-30T03:45:50.345Z,18.60
2017-08-30T03:48:17.635Z,15.40
2017-08-30T03:50:44.944Z,16.30
2017-08-30T03:53:12.234Z,15.80
2017-08-30T03:55:39.541Z,17.03
2017-08-30T03:58:06.830Z,26.83
2017-08-30T04:00:34.123Z,20.37
2017-08-30T04:03:01.419Z,16.57
2017-08-30T04:05:28.720Z,18.50
2017-08-30T04:07:55.991Z,15.97
2017-08-30T04:10:23.301Z,15.87
2017-08-30T04:12:50.579Z,16.77
2017-08-30T04:15:17.886Z,14.07
2017-08-30T04:17:45.165Z,17.20
2017-08-30T04:20:12.442Z,16.20
2017-08-30T04:22:39.750Z,16.50
2017-08-30T04:25:07.044Z,15.10
2017-08-30T04:27:34.345Z,16.37
2017-08-30T04:30:01.623Z,15.80
2017-08-30T04:32:28.927Z,17.90
2017-08-30T04:34:56.207Z,15.10
2017-08-30T04:37:23.513Z,27.13
2017-08-30T04:39:50.810Z,17.00
2017-08-30T04:42:18.117Z,18.90
2017-08-30T04:44:45.379Z,17.47
2017-08-30T04:47:12.669Z,21.80
2017-08-30T04:49:39.960Z,16.80
2017-08-30T04:52:07.269Z,18.27
2017-08-30T04:54:34.551Z,15.80
2017-08-30T04:57:01.847Z,16.23
2017-08-30T04:59:29.130Z,15.93
2017-08-30T05:01:56.433Z,16.80
2017-08-30T05:04:23.954Z,16.13
2017-08-30T05:06:51.261Z,16.10
2017-08-30T05:09:18.553Z,15.37
2017-08-30T05:11:45.851Z,16.93
2017-08-30T05:14:13.212Z,15.20
2017-08-30T05:16:40.523Z,16.13
2017-08-30T05:19:07.803Z,16.13
2017-08-30T05:21:35.104Z,20.93
2017-08-30T05:24:02.515Z,18.90
2017-08-30T05:26:29.804Z,16.83
2017-08-30T05:28:57.237Z,15.43
2017-08-30T05:31:24.562Z,16.07
2017-08-30T05:33:51.932Z,17.30
2017-08-30T05:36:19.197Z,20.00
2017-08-30T05:38:46.501Z,18.50
2017-08-30T05:41:13.778Z,17.87
2017-08-30T05:43:41.079Z,17.03
2017-08-30T05:46:08.369Z,19.20
2017-08-30T05:48:35.682Z,17.00
2017-08-30T05:51:02.986Z,14.80
2017-08-30T05:53:30.271Z,21.30
2017-08-30T05:55:57.571Z,16.20
2017-08-30T05:58:24.847Z,15.00
2017-08-30T06:00:52.148Z,16.80
2017-08-30T06:03:19.445Z,19.07
2017-08-30T06:05:46.725Z,16.40
2017-08-30T06:08:14.016Z,15.97
2017-08-30T06:10:41.303Z,17.10
2017-08-30T06:13:08.599Z,19.30
2017-08-30T06:15:35.880Z,16.53
2017-08-30T06:18:03.195Z,18.00
2017-08-30T06:20:30.572Z,16.13
2017-08-30T06:22:57.868Z,20.63
2017-08-30T06:25:25.139Z,17.00
2017-08-30T06:27:52.435Z,18.07
2017-08-30T06:30:19.704Z,18.10
2017-08-30T06:32:47.000Z,15.87
2017-08-30T06:35:14.267Z,19.60
2017-08-30T06:37:41.536Z,17.40
2017-08-30T06:40:08.838Z,16.40
2017-08-30T06:42:36.115Z,22.73
2017-08-30T06:45:03.400Z,18.03
2017-08-30T06:47:30.692Z,18.27
2017-08-30T06:49:57.987Z,15.83
2017-08-30T06:52:25.259Z,17.17
2017-08-30T06:54:52.546Z,15.77
2017-08-30T06:57:19.818Z,18.23
2017-08-30T06:59:47.117Z,16.93
2017-08-30T07:02:14.399Z,18.93
2017-08-30T07:04:41.671Z,18.60
2017-08-30T07:07:08.958Z,16.20
2017-08-30T07:09:36.231Z,18.27
2017-08-30T07:12:03.525Z,20.50
2017-08-30T07:14:30.798Z,21.07
2017-08-30T07:16:58.088Z,20.70
2017-08-30T07:19:25.359Z,20.40
2017-08-30T07:21:52.651Z,18.37
2017-08-30T07:24:19.926Z,18.00
2017-08-30T07:26:47.219Z,20.00
2017-08-30T07:29:14.495Z,20.27
2017-08-30T07:31:41.769Z,28.23
2017-08-30T07:34:09.064Z,19.60
2017-08-30T07:36:36.338Z,25.77
2017-08-30T07:39:03.627Z,20.10
2017-08-30T07:41:30.912Z,27.03
2017-08-30T07:43:58.200Z,22.83
2017-08-30T07:46:25.470Z,26.23
2017-08-30T07:48:52.764Z,27.57
2017-08-30T07:51:20.044Z,29.80
2017-08-30T07:53:47.335Z,25.00
2017-08-30T07:56:14.612Z,24.93
2017-08-30T07:58:41.899Z,23.43
2017-08-30T08:01:09.183Z,24.93
2017-08-30T08:03:36.471Z,27.77
2017-08-30T08:06:03.739Z,23.30
2017-08-30T08:08:31.033Z,22.70
2017-08-30T08:10:58.298Z,22.97
2017-08-30T08:13:25.597Z,24.40
2017-08-30T08:15:52.863Z,20.33
2017-08-30T08:18:20.156Z,23.63
2017-08-30T08:20:47.428Z,22.40
2017-08-30T08:23:14.700Z,24.40
2017-08-30T08:25:41.998Z,21.80
2017-08-30T08:28:09.276Z,24.80
2017-08-30T08:30:36.841Z,23.23
2017-08-30T08:33:04.119Z,22.63
2017-08-30T08:35:31.421Z,23.90
2017-08-30T08:37:58.683Z,20.23
2017-08-30T08:40:25.976Z,23.60
2017-08-30T08:42:53.419Z,19.70
2017-08-30T08:45:20.710Z,18.07
2017-08-30T08:47:47.991Z,19.83
2017-08-30T08:50:15.282Z,19.80
2017-08-30T08:52:42.559Z,28.20
2017-08-30T08:55:09.859Z,21.37
2017-08-30T08:57:37.714Z,19.83
2017-08-30T09:00:05.002Z,20.17
2017-08-30T09:02:32.288Z,24.37
2017-08-30T09:04:59.580Z,16.17
2017-08-30T09:07:26.859Z,20.23
2017-08-30T09:09:54.129Z,17.43
2017-08-30T09:12:21.418Z,19.07
2017-08-30T09:14:48.690Z,20.53
2017-08-30T09:17:15.979Z,20.90
2017-08-30T09:19:44.067Z,20.70
2017-08-30T09:22:11.362Z,21.77
2017-08-30T09:24:38.648Z,17.73
2017-08-30T09:27:05.927Z,13.97
2017-08-30T09:29:33.200Z,16.63
2017-08-30T09:32:00.487Z,17.70
2017-08-30T09:34:27.762Z,24.10
2017-08-30T09:36:55.065Z,15.23
2017-08-30T09:39:22.319Z,16.43
2017-08-30T09:41:49.623Z,18.27
2017-08-30T09:44:16.893Z,14.70
2017-08-30T09:46:44.182Z,17.63
2017-08-30T09:49:11.456Z,19.00
2017-08-30T09:51:38.745Z,20.53
2017-08-30T09:54:06.017Z,19.00
2017-08-30T09:56:33.291Z,21.30
2017-08-30T09:59:00.579Z,19.07
2017-08-30T10:01:27.848Z,18.73
2017-08-30T10:03:55.136Z,25.73
2017-08-30T10:06:22.407Z,19.63
2017-08-30T10:08:49.708Z,19.83
2017-08-30T10:11:16.983Z,19.97
2017-08-30T10:13:44.270Z,20.60
2017-08-30T10:16:11.551Z,20.50
2017-08-30T10:18:38.962Z,15.23
2017-08-30T10:21:06.239Z,22.47
2017-08-30T10:23:33.515Z,16.43
2017-08-30T10:26:00.784Z,20.57
2017-08-30T10:28:28.080Z,16.33
2017-08-30T10:30:55.347Z,21.57
2017-08-30T10:33:22.636Z,17.80
2017-08-30T10:35:49.919Z,17.83
2017-08-30T10:38:17.228Z,20.43
2017-08-30T10:40:44.499Z,21.53
2017-08-30T10:43:11.766Z,21.93
2017-08-30T10:45:39.060Z,16.50
2017-08-30T10:48:06.335Z,17.57
2017-08-30T10:50:33.630Z,17.87
2017-08-30T10:53:00.900Z,23.53
2017-08-30T10:55:28.194Z,18.77
2017-08-30T10:57:55.467Z,26.10
2017-08-30T11:00:22.754Z,20.73
2017-08-30T11:02:50.029Z,29.47
2017-08-30T11:05:17.323Z,22.70
2017-08-30T11:07:44.593Z,25.23
2017-08-30T11:10:11.932Z,22.20
2017-08-30T11:12:39.198Z,21.60
2017-08-30T11:15:06.487Z,30.03
2017-08-30T11:17:33.756Z,18.47
2017-08-30T11:20:01.056Z,19.77
2017-08-30T11:22:28.331Z,19.10
2017-08-30T11:24:55.620Z,18.07
2017-08-30T11:27:22.896Z,22.87
2017-08-30T11:29:50.195Z,21.03
2017-08-30T11:32:17.474Z,18.43
2017-08-30T11:34:44.740Z,27.63
2017-08-30T11:37:12.035Z,17.03
2017-08-30T11:39:39.303Z,22.10
2017-08-30T11:42:06.588Z,23.77
2017-08-30T11:44:33.855Z,20.30
2017-08-30T11:47:01.148Z,19.10
2017-08-30T11:49:28.415Z,15.23
2017-08-30T11:51:55.702Z,18.90
2017-08-30T11:54:23.031Z,27.53
2017-08-30T11:56:50.317Z,18.43
2017-08-30T11:59:17.599Z,21.63
2017-08-30T12:01:44.884Z,17.07
2017-08-30T12:04:12.154Z,21.37
2017-08-30T12:06:39.443Z,18.33
2017-08-30T12:09:06.723Z,17.30
2017-08-30T12:11:34.016Z,25.17
2017-08-30T12:14:01.288Z,19.63
2017-08-30T12:16:28.593Z,19.47
2017-08-30T12:18:55.869Z,20.17
2017-08-30T12:21:23.167Z,19.80
2017-08-30T12:23:50.455Z,15.63
2017-08-30T12:26:17.724Z,17.60
2017-08-30T12:28:45.023Z,22.03
2017-08-30T12:31:12.296Z,18.37
2017-08-30T12:33:39.583Z,18.50
2017-08-30T12:36:06.851Z,17.27
2017-08-30T12:38:40.027Z,25.87
2017-08-30T12:41:07.302Z,17.13
2017-08-30T12:43:34.591Z,19.53
2017-08-30T12:46:01.867Z,18.60
2017-08-30T12:48:29.220Z,20.40
2017-08-30T12:50:56.488Z,27.30
2017-08-30T12:53:23.782Z,16.87
2017-08-30T12:55:51.048Z,21.90
2017-08-30T12:58:18.342Z,17.30
2017-08-30T13:00:45.615Z,26.90
2017-08-30T13:03:12.906Z,19.93
2017-08-30T13:05:40.184Z,16.07
2017-08-30T13:08:07.454Z,20.83
2017-08-30T13:10:34.756Z,18.80
2017-08-30T13:13:02.028Z,20.10
2017-08-30T13:15:29.319Z,21.50
2017-08-30T13:17:56.600Z,16.20
2017-08-30T13:20:23.893Z,18.77
2017-08-30T13:22:51.162Z,18.37
2017-08-30T13:25:18.464Z,18.57
2017-08-30T13:27:45.745Z,17.70
2017-08-30T13:30:13.033Z,19.03
2017-08-30T13:32:40.305Z,17.37
2017-08-30T13:35:07.586Z,17.07
2017-08-30T13:37:34.867Z,19.47
2017-08-30T13:40:02.162Z,19.60
2017-08-30T13:42:29.434Z,21.73
2017-08-30T13:44:56.764Z,16.40
2017-08-30T13:47:24.038Z,20.70
2017-08-30T13:49:51.318Z,19.77
2017-08-30T13:52:18.612Z,18.17
2017-08-30T13:54:45.891Z,20.83
2017-08-30T13:57:13.185Z,19.17
2017-08-30T13:59:40.457Z,21.40
2017-08-30T14:02:07.738Z,15.70
2017-08-30T14:04:35.007Z,18.60
2017-08-30T14:07:02.299Z,15.07
2017-08-30T14:09:29.578Z,17.60
2017-08-30T14:11:56.871Z,13.63
2017-08-30T14:14:24.145Z,20.80
2017-08-30T14:16:51.437Z,21.40
2017-08-30T14:19:18.724Z,18.27
2017-08-30T14:21:46.008Z,22.00
2017-08-30T14:24:13.279Z,15.30
2017-08-30T14:26:40.570Z,15.43
2017-08-30T14:29:07.839Z,18.83
2017-08-30T14:31:35.138Z,18.90
2017-08-30T14:34:02.412Z,18.17
2017-08-30T14:36:29.683Z,19.87
2017-08-30T14:38:56.971Z,17.27
2017-08-30T14:41:24.234Z,15.57
2017-08-30T14:43:51.528Z,16.30
2017-08-30T14:46:18.793Z,12.37
2017-08-30T14:48:46.082Z,14.57
2017-08-30T14:51:13.346Z,14.47
2017-08-30T14:53:40.631Z,12.80
2017-08-30T14:56:07.895Z,19.80
2017-08-30T14:58:35.179Z,12.57
2017-08-30T15:01:02.447Z,16.13
2017-08-30T15:03:29.723Z,13.23
2017-08-30T15:05:57.044Z,14.23
2017-08-30T15:08:24.339Z,15.03
2017-08-30T15:10:51.602Z,23.63
2017-08-30T15:13:18.864Z,15.03
2017-08-30T15:15:46.147Z,15.67
2017-08-30T15:18:13.429Z,22.20
2017-08-30T15:20:40.712Z,15.47
2017-08-30T15:23:07.977Z,24.53
2017-08-30T15:25:35.259Z,13.73
2017-08-30T15:28:02.528Z,14.70
2017-08-30T15:30:29.815Z,16.93
2017-08-30T15:32:57.083Z,17.43
2017-08-30T15:35:24.370Z,20.17
2017-08-30T15:37:51.635Z,13.33
2017-08-30T15:40:18.925Z,17.60
2017-08-30T15:42:46.186Z,17.47
2017-08-30T15:45:13.471Z,23.30
2017-08-30T15:47:40.735Z,13.33
2017-08-30T15:50:08.041Z,13.77
2017-08-30T15:52:35.300Z,23.13
2017-08-30T15:55:02.585Z,14.20
2017-08-30T15:57:29.839Z,15.03
2017-08-30T15:59:57.131Z,14.00
2017-08-30T16:02:24.398Z,14.30
2017-08-30T16:04:51.679Z,14.57
2017-08-30T16:07:18.953Z,15.33
2017-08-30T16:09:46.233Z,13.77
2017-08-30T16:12:13.695Z,13.30
2017-08-30T16:14:40.972Z,20.93
2017-08-30T16:17:08.252Z,12.07
2017-08-30T16:19:35.520Z,15.60
2017-08-30T16:22:02.807Z,12.67
2017-08-30T16:24:30.071Z,11.17
2017-08-30T16:26:57.364Z,11.87
2017-08-30T16:29:24.631Z,18.17
2017-08-30T16:31:51.920Z,23.13
2017-08-30T16:34:19.334Z,15.27
2017-08-30T16:36:46.627Z,16.83
2017-08-30T16:39:13.886Z,13.60
2017-08-30T16:41:41.171Z,12.70
2017-08-30T16:44:08.441Z,11.30
2017-08-30T16:46:35.719Z,11.97
2017-08-30T16:49:02.992Z,12.03
2017-08-30T16:51:30.284Z,12.03
2017-08-30T16:53:57.547Z,9.90
2017-08-30T16:56:24.839Z,14.37
2017-08-30T16:58:52.107Z,10.73
2017-08-30T17:01:19.388Z,12.13
2017-08-30T17:03:46.686Z,12.37
2017-08-30T17:06:13.947Z,13.90
2017-08-30T17:08:41.239Z,15.43
2017-08-30T17:11:08.508Z,12.33
2017-08-30T17:13:35.790Z,12.87
2017-08-30T17:16:03.056Z,15.80
2017-08-30T17:18:30.343Z,12.83
2017-08-30T17:20:57.653Z,14.30
2017-08-30T17:23:24.919Z,11.40
2017-08-30T17:25:52.192Z,13.23
2017-08-30T17:28:19.482Z,13.60
2017-08-30T17:30:46.740Z,13.20
2017-08-30T17:33:14.040Z,12.00
2017-08-30T17:35:41.314Z,12.13
2017-08-30T17:38:08.608Z,11.33
2017-08-30T17:40:35.873Z,13.13
2017-08-30T17:43:03.171Z,12.10
2017-08-30T17:45:30.441Z,10.27
2017-08-30T17:47:57.721Z,11.13
2017-08-30T17:50:25.009Z,12.20
2017-08-30T17:52:52.287Z,13.23
2017-08-30T17:55:19.571Z,10.77
2017-08-30T17:57:46.841Z,18.53
2017-08-30T18:00:14.979Z,16.47
2017-08-30T18:02:42.247Z,9.90
2017-08-30T18:05:09.537Z,12.23
2017-08-30T18:07:36.812Z,12.23
2017-08-30T18:10:04.092Z,12.13
2017-08-30T18:12:31.363Z,15.23
2017-08-30T18:14:58.648Z,12.67
2017-08-30T18:17:25.911Z,9.57
2017-08-30T18:19:53.215Z,8.90
2017-08-30T18:22:20.485Z,17.30
2017-08-30T18:24:47.760Z,13.60
2017-08-30T18:27:15.047Z,14.67
2017-08-30T18:29:42.311Z,10.43
2017-08-30T18:32:09.606Z,11.43
2017-08-30T18:34:36.864Z,11.33
2017-08-30T18:37:04.166Z,13.07
2017-08-30T18:39:31.457Z,9.37
2017-08-30T18:41:58.762Z,16.80
2017-08-30T18:44:26.037Z,13.70
2017-08-30T18:46:53.320Z,15.03
2017-08-30T18:49:20.594Z,11.47
2017-08-30T18:51:47.886Z,14.57
2017-08-30T18:54:15.175Z,11.07
2017-08-30T18:56:42.471Z,12.17
2017-08-30T18:59:09.739Z,13.40
2017-08-30T19:01:37.036Z,9.93
2017-08-30T19:04:04.292Z,16.70
2017-08-30T19:06:31.579Z,10.47
2017-08-30T19:08:58.855Z,14.03
2017-08-30T19:11:26.133Z,8.77
2017-08-30T19:13:53.410Z,13.90
2017-08-30T19:16:20.698Z,11.23
2017-08-30T19:18:47.967Z,13.93
2017-08-30T19:21:15.255Z,14.70
2017-08-30T19:23:42.523Z,7.30
2017-08-30T19:26:09.843Z,11.50
2017-08-30T19:28:37.111Z,13.63
2017-08-30T19:31:04.395Z,10.40
2017-08-30T19:33:31.677Z,10.40
2017-08-30T19:35:58.957Z,10.90
2017-08-30T19:38:26.235Z,7.77
2017-08-30T19:40:53.515Z,9.43
2017-08-30T19:43:20.815Z,13.60
2017-08-30T19:45:48.082Z,14.70
2017-08-30T19:48:15.369Z,10.43
2017-08-30T19:50:42.631Z,9.80
2017-08-30T19:53:09.918Z,8.10
2017-08-30T19:55:37.194Z,13.13
2017-08-30T19:58:04.479Z,9.27
2017-08-30T20:00:31.730Z,9.60
2017-08-30T20:02:59.067Z,8.33
2017-08-30T20:05:26.323Z,11.80
2017-08-30T20:07:53.612Z,12.67
2017-08-30T20:10:20.927Z,12.47
2017-08-30T20:12:48.188Z,7.37
2017-08-30T20:15:15.508Z,8.63
2017-08-30T20:17:42.807Z,10.47
2017-08-30T20:20:10.083Z,9.30
2017-08-30T20:22:37.371Z,15.77
2017-08-30T20:25:04.637Z,10.03
2017-08-30T20:27:31.922Z,10.77
2017-08-30T20:29:59.187Z,9.43
2017-08-30T20:32:26.462Z,13.03
2017-08-30T20:34:53.747Z,13.33
2017-08-30T20:37:21.019Z,20.97
2017-08-30T20:39:48.308Z,14.27
2017-08-30T20:42:15.575Z,14.83
2017-08-30T20:44:42.866Z,15.47
2017-08-30T20:47:10.135Z,8.77
2017-08-30T20:49:37.416Z,12.00
2017-08-30T20:52:04.679Z,11.00
2017-08-30T20:54:31.963Z,10.00
2017-08-30T20:56:59.228Z,12.67
2017-08-30T20:59:26.515Z,8.77
2017-08-30T21:01:53.776Z,10.63
2017-08-30T21:04:21.062Z,10.03
2017-08-30T21:06:48.327Z,7.90
2017-08-30T21:09:15.609Z,12.60
2017-08-30T21:11:42.870Z,11.00
2017-08-30T21:14:10.167Z,8.63
2017-08-30T21:16:37.428Z,11.43
2017-08-30T21:19:04.691Z,14.67
2017-08-30T21:21:31.970Z,8.57
2017-08-30T21:23:59.227Z,11.23
2017-08-30T21:26:26.508Z,9.80
2017-08-30T21:28:53.769Z,9.23
2017-08-30T21:31:21.059Z,11.97
2017-08-30T21:33:48.324Z,9.40
2017-08-30T21:36:15.607Z,14.47
2017-08-30T21:38:42.871Z,16.23
2017-08-30T21:41:10.158Z,9.03
2017-08-30T21:43:37.414Z,11.03
2017-08-30T21:46:04.702Z,13.53
2017-08-30T21:48:31.967Z,9.80
2017-08-30T21:50:59.243Z,11.93
2017-08-30T21:53:26.507Z,10.33
2017-08-30T21:55:53.791Z,11.07
2017-08-30T21:58:21.056Z,8.60
2017-08-30T22:00:48.319Z,13.37
2017-08-30T22:03:15.683Z,12.00
2017-08-30T22:05:42.955Z,9.43
2017-08-30T22:08:10.324Z,17.80
2017-08-30T22:10:37.590Z,11.10
2017-08-30T22:13:04.879Z,10.80
2017-08-30T22:15:32.145Z,10.73
2017-08-30T22:17:59.430Z,7.60
2017-08-30T22:20:26.696Z,7.77
2017-08-30T22:22:53.975Z,7.60
2017-08-30T22:25:21.240Z,14.73
2017-08-30T22:27:48.528Z,16.57
2017-08-30T22:30:15.792Z,12.80
2017-08-30T22:32:43.080Z,15.47
2017-08-30T22:35:10.343Z,7.50
2017-08-30T22:37:37.623Z,13.20
2017-08-30T22:40:04.892Z,10.40
2017-08-30T22:42:32.156Z,10.10
2017-08-30T22:44:59.442Z,10.97
2017-08-30T22:47:26.707Z,10.47
2017-08-30T22:49:53.982Z,8.93
2017-08-30T22:52:21.238Z,8.80
2017-08-30T22:54:48.527Z,10.13
2017-08-30T22:57:15.797Z,10.43
2017-08-30T22:59:43.076Z,11.47
2017-08-30T23:02:10.339Z,8.70
2017-08-30T23:04:37.624Z,7.87
2017-08-30T23:07:04.888Z,9.20
2017-08-30T23:09:32.162Z,6.53
2017-08-30T23:11:59.420Z,5.90
2017-08-30T23:14:26.678Z,8.67
2017-08-30T23:16:53.955Z,11.30
2017-08-30T23:19:21.215Z,9.10
2017-08-30T23:21:48.493Z,8.33
2017-08-30T23:24:15.751Z,7.70
2017-08-30T23:26:43.040Z,7.93
2017-08-30T23:29:10.311Z,13.77
2017-08-30T23:31:37.581Z,8.93
2017-08-30T23:34:05.198Z,10.63
2017-08-30T23:36:32.490Z,6.20
2017-08-30T23:38:59.749Z,10.53
2017-08-30T23:41:27.024Z,7.37
2017-08-30T23:43:54.283Z,10.00
2017-08-30T23:46:21.581Z,10.90
2017-08-30T23:48:48.830Z,6.90
2017-08-30T23:51:16.109Z,5.97
2017-08-30T23:53:43.376Z,13.83
2017-08-30T23:56:10.636Z,9.17
2017-08-30T23:58:37.916Z,7.40
